< < Back
Terminal Aerodrome Forecast


Current Version              Previous Versions:   1  2  3  4  5  6  7  8  9  

Terminal Aerodrome Forecast

320
FTUS44 KBMX 082352
TAFANB
TAF
KANB 082352Z 0900/0924 29008G16KT P6SM OVC090
     FM090100 28008KT P6SM OVC050
     FM091500 27011G18KT P6SM OVC050=

Latest METAR

383
SAUS70 KWBC 092000 RRK
MTRANB
METAR KANB 091953Z AUTO 28009KT 10SM FEW049 SCT060 OVC070 02/M07 A2992
RMK AO2 SNB25E35 SLP141 P0000 T00221072


USA.gov is the U.S. government's official web portal to all federal, state and local government web resources and services.